createdAt,value
2024-05-09T09:38:30.874Z,7.03
2024-05-09T09:40:58.216Z,6.35
2024-05-09T09:43:26.113Z,5.78
2024-05-09T09:45:55.116Z,5.88
2024-05-09T09:48:23.012Z,6.15
2024-05-09T09:50:51.517Z,5.60
2024-05-09T09:53:19.394Z,6.43
2024-05-09T09:55:46.614Z,5.82
2024-05-09T09:58:16.307Z,5.30
2024-05-09T10:00:43.306Z,7.03
2024-05-09T10:03:10.156Z,6.28
2024-05-09T10:05:37.534Z,6.25
2024-05-09T10:08:06.949Z,5.53
2024-05-09T10:10:35.298Z,5.68
2024-05-09T10:13:05.894Z,5.60
2024-05-09T10:18:13.142Z,5.55
2024-05-09T10:20:41.486Z,4.45
2024-05-09T10:23:26.894Z,5.55
2024-05-09T10:26:04.821Z,5.60
2024-05-09T10:28:33.414Z,6.00
2024-05-09T10:31:08.390Z,5.53
2024-05-09T10:33:52.647Z,6.22
2024-05-09T10:36:25.111Z,5.93
2024-05-09T10:38:54.095Z,5.40
2024-05-09T10:41:21.818Z,6.32
2024-05-09T10:43:49.262Z,6.43
2024-05-09T10:46:16.705Z,6.68
2024-05-09T10:48:44.312Z,5.82
2024-05-09T10:51:11.664Z,5.88
2024-05-09T10:53:45.832Z,6.63
2024-05-09T10:56:17.137Z,5.75
2024-05-09T10:58:44.127Z,6.13
2024-05-09T11:01:11.780Z,5.93
2024-05-09T11:03:39.334Z,6.07
2024-05-09T11:06:07.162Z,6.40
2024-05-09T11:08:34.761Z,6.35
2024-05-09T11:11:04.708Z,6.47
2024-05-09T11:13:33.757Z,6.15
2024-05-09T11:16:01.094Z,6.18
2024-05-09T11:18:32.318Z,6.72
2024-05-09T11:21:02.412Z,6.65
2024-05-09T11:23:32.230Z,6.18
2024-05-09T11:25:59.123Z,6.63
2024-05-09T11:28:28.701Z,6.47
2024-05-09T11:31:08.641Z,6.88
2024-05-09T11:33:41.342Z,6.75
2024-05-09T11:36:08.838Z,5.47
2024-05-09T11:38:35.479Z,6.60
2024-05-09T11:41:02.881Z,6.95
2024-05-09T11:43:29.598Z,6.40
2024-05-09T11:45:57.723Z,5.60
2024-05-09T11:48:26.009Z,7.07
2024-05-09T11:50:55.139Z,6.70
2024-05-09T11:53:21.865Z,6.03
2024-05-09T11:55:48.633Z,5.90
2024-05-09T11:58:17.808Z,6.13
2024-05-09T12:00:45.304Z,6.90
2024-05-09T12:03:12.211Z,7.70
2024-05-09T12:05:38.943Z,6.78
2024-05-09T12:08:06.363Z,6.40
2024-05-09T12:10:35.531Z,6.53
2024-05-09T12:15:34.012Z,5.45
2024-05-09T12:18:03.602Z,5.68
2024-05-09T12:20:36.845Z,7.38
2024-05-09T12:23:06.470Z,7.22
2024-05-09T12:25:33.221Z,7.40
2024-05-09T12:28:00.504Z,7.20
2024-05-09T12:30:35.532Z,7.32
2024-05-09T12:33:06.706Z,7.85
2024-05-09T12:35:33.381Z,7.50
2024-05-09T12:38:00.212Z,6.88
2024-05-09T12:40:35.165Z,7.15
2024-05-09T12:43:05.363Z,6.68
2024-05-09T12:45:32.311Z,6.40
2024-05-09T12:47:59.465Z,7.10
2024-05-09T12:50:32.282Z,6.93
2024-05-09T12:53:01.319Z,6.45
2024-05-09T12:55:29.763Z,6.88
2024-05-09T12:57:58.945Z,6.55
2024-05-09T13:00:31.697Z,7.50
2024-05-09T13:03:01.104Z,6.85
2024-05-09T13:05:28.490Z,6.57
2024-05-09T13:07:56.675Z,6.32
2024-05-09T13:10:30.834Z,6.78
2024-05-09T13:12:59.854Z,7.03
2024-05-09T13:15:26.957Z,6.55
2024-05-09T13:17:54.801Z,6.70
2024-05-09T13:20:29.468Z,7.00
2024-05-09T13:23:01.545Z,6.97
2024-05-09T13:25:28.167Z,7.07
2024-05-09T13:27:55.091Z,6.78
2024-05-09T13:30:29.408Z,6.57
2024-05-09T13:33:05.168Z,5.80
2024-05-09T13:35:32.291Z,5.88
2024-05-09T13:38:01.193Z,6.53
2024-05-09T13:40:33.373Z,6.13
2024-05-09T13:43:02.745Z,7.10
2024-05-09T13:45:29.534Z,7.68
2024-05-09T13:47:56.623Z,5.80
2024-05-09T13:50:31.372Z,6.05
2024-05-09T13:53:02.220Z,6.00
2024-05-09T13:55:28.958Z,7.10
2024-05-09T13:57:56.010Z,6.22
2024-05-09T14:00:32.455Z,6.70
2024-05-09T14:03:09.474Z,7.03
2024-05-09T14:05:36.412Z,6.97
2024-05-09T14:08:03.212Z,7.25
2024-05-09T14:10:31.893Z,7.05
2024-05-09T14:13:00.053Z,7.00
2024-05-09T14:15:26.986Z,7.40
2024-05-09T14:17:54.592Z,6.95
2024-05-09T14:22:50.778Z,6.68
2024-05-09T14:25:17.577Z,6.18
2024-05-09T14:27:44.341Z,6.45
2024-05-09T14:30:18.249Z,6.53
2024-05-09T14:32:52.829Z,6.35
2024-05-09T14:35:19.731Z,6.00
2024-05-09T14:37:46.436Z,6.90
2024-05-09T14:40:30.325Z,6.57
2024-05-09T14:43:03.153Z,6.03
2024-05-09T14:45:30.115Z,6.93
2024-05-09T14:47:57.037Z,7.47
2024-05-09T14:50:32.155Z,7.15
2024-05-09T14:53:02.923Z,6.18
2024-05-09T14:55:29.514Z,6.82
2024-05-09T14:57:56.231Z,6.90
2024-05-09T15:00:28.808Z,6.75
2024-05-09T15:03:00.487Z,6.93
2024-05-09T15:05:27.361Z,6.82
2024-05-09T15:07:54.326Z,6.32
2024-05-09T15:10:27.324Z,7.38
2024-05-09T15:13:01.270Z,6.03
2024-05-09T15:15:28.011Z,6.70
2024-05-09T15:17:55.413Z,6.15
2024-05-09T15:20:31.076Z,6.93
2024-05-09T15:23:02.426Z,7.38
2024-05-09T15:25:29.371Z,7.00
2024-05-09T15:27:56.229Z,7.68
2024-05-09T15:32:52.835Z,7.63
2024-05-09T15:35:19.967Z,7.55
2024-05-09T15:37:48.369Z,7.40
2024-05-09T15:40:21.575Z,8.32
2024-05-09T15:42:53.353Z,7.72
2024-05-09T15:45:19.984Z,7.25
2024-05-09T15:47:46.809Z,7.72
2024-05-09T15:50:20.463Z,8.30
2024-05-09T15:52:55.351Z,8.20
2024-05-09T15:55:22.011Z,8.15
2024-05-09T15:57:48.731Z,8.13
2024-05-09T16:00:24.785Z,8.13
2024-05-09T16:03:00.091Z,7.97
2024-05-09T16:05:27.154Z,8.25
2024-05-09T16:07:54.051Z,8.18
2024-05-09T16:10:25.899Z,8.27
2024-05-09T16:12:58.739Z,8.98
2024-05-09T16:15:25.451Z,7.50
2024-05-09T16:17:52.063Z,7.82
2024-05-09T16:20:29.611Z,8.30
2024-05-09T16:23:04.950Z,7.15
2024-05-09T16:25:31.625Z,7.90
2024-05-09T16:27:58.386Z,7.80
2024-05-09T16:30:31.954Z,7.90
2024-05-09T16:33:02.524Z,7.82
2024-05-09T16:35:29.488Z,7.65
2024-05-09T16:37:56.177Z,8.63
2024-05-09T16:40:30.296Z,7.95
2024-05-09T16:43:04.874Z,7.97
2024-05-09T16:45:31.826Z,7.47
2024-05-09T16:47:59.752Z,7.75
2024-05-09T16:50:32.305Z,8.52
2024-05-09T16:53:01.090Z,7.32
2024-05-09T16:55:27.902Z,7.43
2024-05-09T16:57:55.839Z,10.60
2024-05-09T17:00:31.791Z,9.70
2024-05-09T17:03:07.451Z,10.68
2024-05-09T17:05:34.886Z,11.20
2024-05-09T17:08:02.299Z,9.63
2024-05-09T17:10:33.071Z,10.48
2024-05-09T17:13:02.533Z,10.88
2024-05-09T17:15:29.960Z,11.00
2024-05-09T17:17:56.888Z,10.63
2024-05-09T17:20:31.336Z,10.50
2024-05-09T17:23:02.263Z,9.95
2024-05-09T17:25:29.349Z,10.20
2024-05-09T17:27:56.595Z,9.02
2024-05-09T17:30:29.378Z,9.05
2024-05-09T17:33:02.594Z,9.02
2024-05-09T17:35:29.320Z,8.38
2024-05-09T17:37:56.572Z,8.52
2024-05-09T17:40:30.577Z,10.18
2024-05-09T17:43:00.838Z,9.18
2024-05-09T17:45:27.537Z,9.32
2024-05-09T17:47:54.395Z,8.95
2024-05-09T17:50:27.544Z,8.43
2024-05-09T17:53:00.711Z,8.13
2024-05-09T17:55:27.589Z,8.25
2024-05-09T17:57:54.410Z,8.35
2024-05-09T18:00:29.279Z,9.93
2024-05-09T18:03:04.441Z,10.32
2024-05-09T18:05:31.571Z,11.15
2024-05-09T18:07:58.545Z,11.00
2024-05-09T18:10:32.843Z,10.25
2024-05-09T18:13:03.698Z,11.02
2024-05-09T18:15:30.571Z,10.77
2024-05-09T18:17:57.669Z,10.65
2024-05-09T18:20:33.130Z,10.57
2024-05-09T18:23:08.053Z,10.60
2024-05-09T18:25:34.907Z,10.60
2024-05-09T18:28:02.807Z,10.23
2024-05-09T18:30:34.724Z,9.70
2024-05-09T18:33:04.115Z,10.73
2024-05-09T18:35:31.262Z,9.95
2024-05-09T18:37:57.867Z,9.57
2024-05-09T18:40:32.635Z,10.10
2024-05-09T18:43:04.152Z,10.00
2024-05-09T18:45:31.298Z,9.55
2024-05-09T18:47:58.324Z,8.85
2024-05-09T18:50:33.975Z,9.23
2024-05-09T18:53:07.861Z,8.15
2024-05-09T18:55:34.908Z,7.85
2024-05-09T18:58:01.742Z,7.90
2024-05-09T19:00:34.705Z,8.13
2024-05-09T19:03:08.499Z,7.78
2024-05-09T19:05:37.509Z,7.00
2024-05-09T19:08:04.678Z,6.93
2024-05-09T19:10:34.644Z,6.65
2024-05-09T19:13:06.843Z,6.57
2024-05-09T19:15:37.714Z,6.72
2024-05-09T19:18:04.877Z,7.15
2024-05-09T19:20:34.411Z,6.95
2024-05-09T19:23:02.729Z,6.47
2024-05-09T19:25:29.472Z,6.90
2024-05-09T19:27:56.176Z,6.85
2024-05-09T19:30:30.423Z,6.90
2024-05-09T19:33:05.117Z,7.13
2024-05-09T19:35:32.382Z,7.15
2024-05-09T19:37:59.208Z,6.65
2024-05-09T19:40:31.304Z,6.45
2024-05-09T19:43:00.682Z,6.68
2024-05-09T19:45:27.480Z,6.72
2024-05-09T19:47:54.441Z,6.80
2024-05-09T19:50:30.173Z,7.13
2024-05-09T19:53:03.236Z,7.00
2024-05-09T19:55:29.886Z,6.65
2024-05-09T19:57:56.933Z,6.07
2024-05-09T20:00:32.312Z,6.97
2024-05-09T20:03:02.498Z,7.25
2024-05-09T20:05:30.979Z,6.72
2024-05-09T20:07:57.933Z,7.65
2024-05-09T20:10:29.891Z,7.90
2024-05-09T20:12:59.532Z,7.72
2024-05-09T20:15:26.288Z,7.40
2024-05-09T20:17:53.444Z,9.45
2024-05-09T20:20:28.441Z,10.23
2024-05-09T20:23:02.998Z,9.70
2024-05-09T20:25:29.697Z,9.70
2024-05-09T20:27:56.351Z,9.48
2024-05-09T20:30:30.472Z,9.30
2024-05-09T20:32:59.702Z,8.70
2024-05-09T20:35:26.700Z,8.98
2024-05-09T20:37:53.402Z,10.90
2024-05-09T20:40:28.284Z,9.02
2024-05-09T20:42:58.786Z,8.90
2024-05-09T20:45:25.539Z,9.18
2024-05-09T20:47:52.369Z,8.63
2024-05-09T20:50:28.032Z,8.20
2024-05-09T20:53:02.810Z,8.38
2024-05-09T20:55:30.016Z,8.07
2024-05-09T20:57:56.983Z,7.50
2024-05-09T21:00:30.299Z,7.53
2024-05-09T21:03:06.312Z,8.02
2024-05-09T21:05:33.546Z,8.13
2024-05-09T21:08:00.525Z,9.15
2024-05-09T21:10:29.696Z,8.93
2024-05-09T21:12:58.339Z,9.20
2024-05-09T21:15:25.023Z,9.77
2024-05-09T21:17:51.670Z,9.48
2024-05-09T21:20:23.971Z,10.55
2024-05-09T21:22:55.570Z,10.23
2024-05-09T21:25:22.750Z,10.55
2024-05-09T21:27:49.426Z,10.48
2024-05-09T21:30:22.715Z,9.60
2024-05-09T21:32:58.185Z,10.18
2024-05-09T21:35:25.036Z,10.60
2024-05-09T21:37:51.637Z,10.77
2024-05-09T21:40:27.017Z,10.15
2024-05-09T21:43:00.320Z,10.13
2024-05-09T21:45:27.077Z,10.65
2024-05-09T21:47:53.781Z,10.50
2024-05-09T21:50:27.575Z,11.25
2024-05-09T21:52:58.895Z,9.57
2024-05-09T21:55:25.581Z,9.95
2024-05-09T21:57:52.335Z,10.48
2024-05-09T22:00:28.672Z,10.52
2024-05-09T22:05:28.686Z,10.35
2024-05-09T22:07:55.408Z,10.13
2024-05-09T22:10:26.547Z,10.60
2024-05-09T22:12:59.136Z,10.85
2024-05-09T22:15:25.904Z,11.00
2024-05-09T22:17:52.595Z,11.23
2024-05-09T22:20:28.569Z,10.88
2024-05-09T22:23:01.164Z,11.43
2024-05-09T22:25:30.482Z,12.02
2024-05-09T22:27:57.697Z,11.52
2024-05-09T22:30:33.128Z,11.82
2024-05-09T22:33:03.787Z,11.80
2024-05-09T22:35:30.488Z,12.20
2024-05-09T22:37:57.059Z,11.57
2024-05-09T22:40:32.283Z,11.88
2024-05-09T22:43:06.098Z,11.05
2024-05-09T22:45:32.969Z,11.80
2024-05-09T22:47:59.786Z,10.77
2024-05-09T22:50:30.549Z,11.63
2024-05-09T22:52:59.258Z,11.43
2024-05-09T22:55:25.817Z,11.25
2024-05-09T22:57:52.485Z,11.35
2024-05-09T23:00:29.120Z,11.80
2024-05-09T23:03:00.006Z,11.52
2024-05-09T23:05:27.007Z,12.50
2024-05-09T23:07:53.787Z,11.15
2024-05-09T23:10:27.758Z,12.13
2024-05-09T23:12:59.332Z,11.98
2024-05-09T23:15:25.967Z,12.18
2024-05-09T23:17:52.702Z,11.70
2024-05-09T23:20:29.810Z,11.40
2024-05-09T23:23:03.566Z,12.48
2024-05-09T23:25:30.265Z,12.27
2024-05-09T23:27:57.075Z,12.02
2024-05-09T23:30:33.298Z,11.55
2024-05-09T23:33:05.170Z,11.95
2024-05-09T23:35:31.960Z,11.45
2024-05-09T23:37:58.550Z,10.98
2024-05-09T23:40:36.650Z,11.30
2024-05-09T23:43:06.715Z,12.25
2024-05-09T23:45:33.675Z,11.23
2024-05-09T23:48:00.493Z,12.10
2024-05-09T23:50:34.276Z,11.77
2024-05-09T23:53:04.252Z,10.93
2024-05-09T23:55:31.549Z,12.43
2024-05-09T23:57:58.557Z,12.63
